Time;durP1;ratioP1;P1;durP2;ratioP2;P2;SDS_P1;SDS_P2;PMS_P1;PMS_P2;Temp;Humidity;BMP_temperature;BMP_pressure;BME280_temperature;BME280_humidity;BME280_pressure;Samples;Min_cycle;Max_cycle;Signal;HPM_P1;HPM_P2
2022/07/10 00:01:30;;;;;;;7.47;6.68;;;;;;;18.13;69.92;99079.97;5057646;28;20090;-92
2022/07/10 00:03:56;;;;;;;9.63;8.02;;;;;;;18.08;70.12;99078.31;5057445;28;20035;-91
2022/07/10 00:06:21;;;;;;;9.80;8.05;;;;;;;18.08;69.99;99084.78;5057655;28;20032;-93
2022/07/10 00:08:47;;;;;;;8.65;7.60;;;;;;;17.97;69.93;99061.22;5057662;28;20063;-92
2022/07/10 00:11:13;;;;;;;7.95;7.25;;;;;;;18.06;69.49;99080.72;5057398;28;20024;-93
2022/07/10 00:13:38;;;;;;;10.40;7.05;;;;;;;17.92;70.13;99072.94;5057463;28;20036;-92
2022/07/10 00:16:04;;;;;;;8.32;6.95;;;;;;;18.01;69.91;99084.72;5057374;28;20052;-92
2022/07/10 00:18:29;;;;;;;10.80;7.40;;;;;;;17.99;69.77;99080.66;5057385;28;20028;-91
2022/07/10 00:20:55;;;;;;;8.50;7.13;;;;;;;18.01;69.70;99086.72;5057359;28;20570;-92
2022/07/10 00:23:20;;;;;;;16.95;7.55;;;;;;;17.94;69.63;99079.84;5057315;28;20028;-92
2022/07/10 00:25:46;;;;;;;8.68;6.85;;;;;;;18.05;69.08;99081.94;5057289;28;20028;-92
2022/07/10 00:28:12;;;;;;;7.63;6.93;;;;;;;17.99;69.66;99080.66;5057056;28;20025;-91
2022/07/10 00:30:37;;;;;;;9.18;7.40;;;;;;;17.87;69.46;99065.63;5057138;28;20025;-92
2022/07/10 00:33:04;;;;;;;10.05;7.43;;;;;;;17.97;69.31;99078.22;5074144;28;20036;-92
2022/07/10 00:35:29;;;;;;;6.97;6.38;;;;;;;17.96;68.78;99068.09;5057229;28;20028;-93
2022/07/10 00:37:55;;;;;;;11.43;7.50;;;;;;;18.03;68.92;99064.53;5057079;28;20020;-93
2022/07/10 00:40:21;;;;;;;15.23;8.50;;;;;;;18.07;68.13;99060.50;5056721;28;20036;-91
2022/07/10 00:42:46;;;;;;;15.05;7.20;;;;;;;18.07;68.36;99060.50;5056971;28;20020;-92
2022/07/10 00:45:12;;;;;;;9.07;7.03;;;;;;;18.16;67.81;99050.84;5056931;28;20032;-92
2022/07/10 00:47:38;;;;;;;7.90;7.05;;;;;;;18.02;67.69;99038.25;5056840;28;20031;-91
2022/07/10 00:50:05;;;;;;;6.95;6.25;;;;;;;18.18;67.73;99051.28;5056856;28;20029;-91
2022/07/10 00:52:31;;;;;;;6.80;6.20;;;;;;;18.08;67.21;99042.31;5056737;28;20028;-91
2022/07/10 00:54:57;;;;;;;7.60;6.57;;;;;;;18.12;67.01;99047.22;5056593;28;20028;-93
2022/07/10 00:57:23;;;;;;;9.65;7.20;;;;;;;18.10;67.02;99042.75;5056629;28;20082;-91
2022/07/10 00:59:49;;;;;;;8.10;7.20;;;;;;;18.03;66.98;99036.22;5056339;28;20119;-91
2022/07/10 01:02:16;;;;;;;7.22;6.50;;;;;;;17.93;67.17;99015.16;5056642;28;20091;-92
2022/07/10 01:04:42;;;;;;;7.93;7.22;;;;;;;18.11;66.92;99029.41;5056344;28;20075;-91
2022/07/10 01:07:07;;;;;;;9.68;6.85;;;;;;;18.02;67.10;99032.56;5056532;28;20032;-92
2022/07/10 01:09:34;;;;;;;8.35;6.40;;;;;;;18.04;67.18;99024.53;5056370;28;20025;-91
2022/07/10 01:12:01;;;;;;;9.70;6.55;;;;;;;18.09;67.08;99031.84;5056301;28;20020;-91
2022/07/10 01:14:28;;;;;;;9.60;6.88;;;;;;;18.00;67.27;99031.34;5056363;28;20079;-93
2022/07/10 01:16:54;;;;;;;8.93;6.70;;;;;;;17.91;67.10;99018.34;5056278;28;20486;-92
2022/07/10 01:19:20;;;;;;;8.05;6.88;;;;;;;18.02;67.46;99024.09;5056151;28;20036;-92
2022/07/10 01:21:45;;;;;;;8.88;6.72;;;;;;;17.94;67.42;99023.25;5056129;28;20479;-91
2022/07/10 01:24:12;;;;;;;8.55;7.38;;;;;;;17.90;67.31;99028.06;5073923;28;20028;-91
2022/07/10 01:26:42;;;;;;;8.13;7.18;;;;;;;18.00;67.27;99026.50;5074057;28;20028;-92
2022/07/10 01:29:09;;;;;;;9.55;7.13;;;;;;;17.71;67.35;98988.78;5056303;28;20024;-91
2022/07/10 01:31:35;;;;;;;10.10;7.70;;;;;;;17.82;67.14;99007.41;5056025;28;20517;-92
2022/07/10 01:34:01;;;;;;;8.75;7.10;;;;;;;17.92;67.11;99027.66;5055954;28;20033;-91
2022/07/10 01:36:29;;;;;;;7.72;6.93;;;;;;;17.94;67.02;99025.25;5055925;28;20024;-91
2022/07/10 01:38:56;;;;;;;9.90;6.57;;;;;;;17.88;66.86;99012.72;5055876;28;20475;-92
2022/07/10 01:41:22;;;;;;;10.00;8.05;;;;;;;17.88;66.99;99016.31;5055858;28;20028;-90
2022/07/10 01:43:48;;;;;;;7.78;7.03;;;;;;;17.80;66.99;99004.16;5055794;28;20422;-91
2022/07/10 01:46:15;;;;;;;9.63;7.05;;;;;;;17.83;67.46;99025.22;5054635;28;20024;-91
2022/07/10 01:48:41;;;;;;;8.23;6.78;;;;;;;17.77;67.61;99018.28;5060397;28;20036;-92
2022/07/10 01:51:07;;;;;;;8.05;7.25;;;;;;;17.80;67.87;99031.66;5055784;28;20116;-92
2022/07/10 01:53:33;;;;;;;10.23;7.15;;;;;;;17.78;68.01;99020.72;5055484;28;20033;-91
2022/07/10 01:56:02;;;;;;;7.57;6.88;;;;;;;17.92;67.83;99041.81;5055689;28;20028;-92
2022/07/10 01:58:28;;;;;;;13.05;7.35;;;;;;;17.87;68.30;99039.38;5072173;28;20111;-92
2022/07/10 02:00:53;;;;;;;10.18;7.55;;;;;;;17.91;68.97;99040.19;5055343;28;20513;-92
2022/07/10 02:06:03;;;;;;;8.05;6.95;;;;;;;18.09;67.66;99029.00;5072979;28;20055;-92
2022/07/10 02:11:50;;;;;;;7.70;6.90;;;;;;;18.22;67.02;99015.28;5262061;22;20110;-85
2022/07/10 02:14:16;;;;;;;7.53;6.82;;;;;;;18.45;66.63;99014.97;5052774;28;20032;-85
2022/07/10 02:16:41;;;;;;;8.02;7.20;;;;;;;18.38;66.86;99006.47;5053866;28;20044;-85
2022/07/10 02:19:07;;;;;;;10.38;7.22;;;;;;;18.25;66.94;99011.69;5053943;28;20123;-85
2022/07/10 02:21:32;;;;;;;13.98;7.78;;;;;;;18.42;66.65;99006.47;5054343;28;20036;-85
2022/07/10 02:23:58;;;;;;;10.23;6.78;;;;;;;18.51;65.82;99009.75;5071437;28;20028;-84
2022/07/10 02:26:23;;;;;;;9.98;7.22;;;;;;;18.31;66.66;99012.13;5054571;28;20475;-85
2022/07/10 02:28:49;;;;;;;12.15;6.38;;;;;;;17.89;66.90;98966.25;5055652;28;20490;-85
2022/07/10 02:31:15;;;;;;;10.73;7.95;;;;;;;17.96;67.14;98986.06;5053730;28;20027;-85
2022/07/10 02:33:40;;;;;;;7.40;6.72;;;;;;;18.16;67.19;99017.72;5041213;28;20040;-85
2022/07/10 02:36:06;;;;;;;7.43;6.72;;;;;;;17.94;67.20;98988.47;5050128;28;20415;-85
2022/07/10 02:38:31;;;;;;;9.35;7.75;;;;;;;17.78;66.53;98961.34;5033761;28;20041;-85
2022/07/10 02:40:57;;;;;;;8.98;8.07;;;;;;;17.54;67.20;98959.97;5051554;28;20029;-85
2022/07/10 02:43:22;;;;;;;9.57;8.23;;;;;;;17.49;68.68;98992.25;5046558;28;20502;-85
2022/07/10 02:45:48;;;;;;;8.80;7.68;;;;;;;17.56;68.55;99007.66;5054302;28;20036;-85
2022/07/10 02:48:17;;;;;;;15.75;7.78;;;;;;;17.48;68.85;99018.91;5053712;28;20024;-85
2022/07/10 02:50:43;;;;;;;11.00;9.40;;;;;;;17.47;69.17;99016.50;5053784;28;20028;-85
2022/07/10 02:53:09;;;;;;;11.95;9.23;;;;;;;17.40;69.21;99011.59;5053345;28;20066;-85
2022/07/10 02:55:34;;;;;;;13.80;10.32;;;;;;;17.28;69.11;99004.22;5053817;28;20028;-85
2022/07/10 02:58:00;;;;;;;9.98;8.57;;;;;;;17.28;69.52;99006.25;5072077;28;20032;-85
2022/07/10 03:00:26;;;;;;;11.30;8.95;;;;;;;17.35;69.62;99018.44;5056120;28;20036;-85
2022/07/10 03:02:54;;;;;;;9.38;8.35;;;;;;;17.41;69.35;99030.19;5055288;28;20032;-84
2022/07/10 03:05:20;;;;;;;10.88;9.73;;;;;;;17.37;69.63;99023.69;5056587;28;20035;-86
2022/07/10 03:07:45;;;;;;;12.77;9.50;;;;;;;17.30;69.89;99023.63;5053576;28;20024;-85
2022/07/10 03:10:11;;;;;;;15.15;10.65;;;;;;;17.33;69.61;99023.66;5055563;28;20025;-85
2022/07/10 03:12:37;;;;;;;11.68;9.88;;;;;;;17.25;69.67;99017.16;5041242;28;20053;-85
2022/07/10 03:15:04;;;;;;;11.30;10.02;;;;;;;17.34;69.80;99036.59;5033535;28;20032;-85
2022/07/10 03:17:29;;;;;;;13.32;9.90;;;;;;;17.26;69.94;99041.38;5033197;28;20067;-85
2022/07/10 03:19:55;;;;;;;11.05;9.90;;;;;;;17.31;69.68;99036.56;5051230;28;20100;-85
2022/07/10 03:22:21;;;;;;;16.02;11.63;;;;;;;17.24;69.42;99035.28;5034747;28;20048;-85
2022/07/10 03:24:46;;;;;;;10.85;9.60;;;;;;;17.11;70.08;99014.19;5054092;28;20512;-85
2022/07/10 03:27:13;;;;;;;13.23;10.63;;;;;;;17.32;69.57;99049.50;5034791;28;20483;-85
2022/07/10 03:29:39;;;;;;;23.30;10.82;;;;;;;17.25;70.33;99055.91;5033074;28;20491;-84
2022/07/10 03:32:05;;;;;;;21.50;10.77;;;;;;;17.19;70.61;99051.78;5032783;28;20031;-85
2022/07/10 03:34:32;;;;;;;15.13;11.07;;;;;;;17.01;71.02;99020.56;5032499;28;20142;-84
2022/07/10 03:36:58;;;;;;;13.23;10.00;;;;;;;17.13;70.85;99045.69;5051731;28;20101;-85
2022/07/10 03:39:23;;;;;;;11.70;10.50;;;;;;;17.01;70.86;99026.19;5050358;28;20040;-85
2022/07/10 03:41:49;;;;;;;15.82;10.73;;;;;;;17.00;70.59;99013.28;5022024;28;20052;-85
2022/07/10 03:44:14;;;;;;;11.40;10.30;;;;;;;17.03;70.34;99023.81;5033472;28;20128;-85
2022/07/10 03:46:40;;;;;;;11.02;9.93;;;;;;;16.90;70.55;98993.03;5033804;28;20463;-85
2022/07/10 03:49:05;;;;;;;18.85;11.02;;;;;;;17.01;69.86;98995.94;5051159;28;20029;-85
2022/07/10 03:51:31;;;;;;;16.42;11.52;;;;;;;17.25;70.41;99034.13;5033493;28;20044;-83
2022/07/10 03:53:56;;;;;;;10.70;9.68;;;;;;;17.16;70.13;99013.84;5032950;28;20052;-83
2022/07/10 03:59:05;;;;;;;11.55;10.35;;;;;;;17.35;69.48;99018.44;5051238;28;20090;-83
2022/07/10 04:01:31;;;;;;;10.88;9.63;;;;;;;17.31;69.93;99013.94;5033816;28;20017;-83
2022/07/10 04:03:56;;;;;;;14.02;10.50;;;;;;;17.37;69.22;99006.72;5034189;28;20025;-83
2022/07/10 04:06:22;;;;;;;16.60;10.18;;;;;;;17.46;69.72;99020.53;5034033;28;20029;-83
2022/07/10 04:08:47;;;;;;;14.93;10.20;;;;;;;17.18;69.35;98973.88;5033675;28;20057;-84
2022/07/10 04:11:13;;;;;;;12.00;10.20;;;;;;;17.51;69.27;99018.16;5035468;28;20032;-82
2022/07/10 04:13:38;;;;;;;12.63;11.38;;;;;;;17.53;69.47;99021.38;5034725;28;20064;-84
2022/07/10 04:16:04;;;;;;;11.93;10.52;;;;;;;17.48;69.38;98996.28;5035106;28;20024;-83
2022/07/10 04:18:30;;;;;;;13.30;10.15;;;;;;;17.61;69.59;99015.75;5037174;28;20518;-83
2022/07/10 04:20:55;;;;;;;13.00;11.40;;;;;;;17.74;69.27;99014.25;5036559;28;20067;-83
2022/07/10 04:23:21;;;;;;;16.52;11.50;;;;;;;17.69;68.61;98977.84;5039890;28;20021;-84
2022/07/10 04:25:46;;;;;;;10.88;9.75;;;;;;;17.73;67.63;98970.19;5035869;28;20479;-84
2022/07/10 04:28:11;;;;;;;11.82;10.40;;;;;;;17.94;68.02;98997.78;5037057;28;20056;-83
2022/07/10 04:30:37;;;;;;;12.55;10.55;;;;;;;18.05;67.07;99005.53;5038948;28;20025;-84
2022/07/10 04:33:02;;;;;;;17.20;11.30;;;;;;;18.14;67.67;99008.00;5039120;28;20071;-84
2022/07/10 04:35:28;;;;;;;13.48;10.48;;;;;;;18.06;67.30;98990.97;5037828;28;20032;-84
2022/07/10 04:37:53;;;;;;;13.23;10.20;;;;;;;18.14;67.45;98993.84;5036334;28;20479;-85
2022/07/10 04:40:19;;;;;;;12.20;10.98;;;;;;;18.27;67.44;98997.94;5035706;28;20064;-84
2022/07/10 04:42:44;;;;;;;10.88;9.75;;;;;;;18.32;66.68;98986.22;5036072;28;20120;-84
2022/07/10 04:45:11;;;;;;;10.80;9.70;;;;;;;18.30;66.67;98993.50;5035733;28;20083;-85
2022/07/10 04:47:36;;;;;;;27.35;11.70;;;;;;;18.35;66.30;99002.44;5035517;28;20479;-84
2022/07/10 04:50:02;;;;;;;14.15;10.90;;;;;;;18.37;67.40;98999.19;5035410;28;20024;-85
2022/07/10 04:52:27;;;;;;;19.05;11.00;;;;;;;18.48;66.81;99005.69;5052175;28;20027;-84
2022/07/10 04:54:53;;;;;;;14.30;11.07;;;;;;;18.53;66.56;99010.16;5040325;28;20041;-84
2022/07/10 04:57:18;;;;;;;20.45;11.02;;;;;;;18.66;66.85;99011.38;5038524;28;20434;-85
2022/07/10 04:59:44;;;;;;;11.75;10.63;;;;;;;18.63;66.69;98997.22;5034996;28;20041;-85
2022/07/10 05:02:09;;;;;;;17.05;10.68;;;;;;;18.69;67.49;99008.97;5035165;28;20033;-85
2022/07/10 05:04:35;;;;;;;12.60;11.07;;;;;;;18.46;67.30;98988.28;5035269;28;20482;-85
2022/07/10 05:07:00;;;;;;;11.95;10.73;;;;;;;18.56;67.38;99003.66;5053034;28;20502;-85
2022/07/10 05:09:26;;;;;;;13.68;9.40;;;;;;;18.60;66.78;99006.53;5052491;28;20025;-84
2022/07/10 05:11:51;;;;;;;11.45;10.25;;;;;;;18.40;66.62;98972.09;5034883;28;20186;-84
2022/07/10 05:14:17;;;;;;;10.43;9.43;;;;;;;18.73;66.25;99009.78;5033687;28;20028;-85
2022/07/10 05:16:42;;;;;;;10.48;9.48;;;;;;;18.46;65.91;98968.47;5034431;28;20411;-84
2022/07/10 05:19:08;;;;;;;9.93;9.02;;;;;;;18.73;66.25;99002.09;5028415;28;20087;-85
2022/07/10 05:21:33;;;;;;;11.48;10.27;;;;;;;18.80;66.67;99015.44;5035023;28;20033;-85
2022/07/10 05:23:59;;;;;;;11.13;9.75;;;;;;;18.80;65.84;99009.78;5034872;28;20028;-85
2022/07/10 05:26:24;;;;;;;10.48;9.55;;;;;;;19.00;65.68;99012.28;5033949;28;20091;-85
2022/07/10 05:28:50;;;;;;;14.15;10.60;;;;;;;19.05;64.94;99004.19;5032504;28;20033;-86
2022/07/10 05:31:15;;;;;;;10.20;9.20;;;;;;;19.26;63.42;99005.41;5034871;28;20028;-85
2022/07/10 05:33:42;;;;;;;11.52;9.10;;;;;;;19.43;63.10;98992.44;5034726;28;20437;-85
2022/07/10 05:36:08;;;;;;;10.98;9.88;;;;;;;19.52;63.50;99017.53;5034800;28;20056;-85
2022/07/10 05:38:34;;;;;;;10.50;8.70;;;;;;;19.42;63.43;99007.78;5034430;28;20024;-85
2022/07/10 05:41:00;;;;;;;9.02;8.20;;;;;;;19.40;63.57;99004.56;5034469;28;20554;-86
2022/07/10 05:43:25;;;;;;;9.82;8.75;;;;;;;19.28;63.41;98985.13;5052406;28;20032;-85
2022/07/10 05:45:51;;;;;;;9.57;8.20;;;;;;;19.45;63.71;99009.03;5034661;28;20116;-86
2022/07/10 05:48:16;;;;;;;10.02;8.82;;;;;;;19.52;63.70;98994.84;5034539;28;20491;-85
2022/07/10 05:50:42;;;;;;;9.77;8.88;;;;;;;19.78;63.05;99013.41;5034555;28;20025;-85
2022/07/10 05:53:07;;;;;;;10.93;8.30;;;;;;;19.73;63.45;99013.00;5052673;28;20033;-85
2022/07/10 05:55:33;;;;;;;9.32;8.35;;;;;;;19.61;63.36;98994.41;5033957;28;20036;-85
2022/07/10 05:57:59;;;;;;;14.52;8.88;;;;;;;19.69;63.70;99006.53;5034585;28;20025;-85
2022/07/10 06:00:24;;;;;;;10.93;9.05;;;;;;;19.67;63.59;98987.13;5034174;28;20133;-85
2022/07/10 06:02:50;;;;;;;9.98;8.32;;;;;;;19.81;62.97;99008.16;5034327;28;20095;-85
2022/07/10 06:05:15;;;;;;;12.32;9.02;;;;;;;19.82;62.82;99001.25;5034289;28;20029;-85
2022/07/10 06:07:41;;;;;;;15.32;9.00;;;;;;;19.92;63.05;99014.63;5033867;28;20121;-85
2022/07/10 06:10:07;;;;;;;9.80;8.52;;;;;;;19.96;62.03;99001.25;5034159;28;20029;-85
2022/07/10 06:12:33;;;;;;;23.08;9.25;;;;;;;19.96;62.73;98984.22;5033243;28;20476;-85
2022/07/10 06:14:58;;;;;;;12.23;9.57;;;;;;;20.12;61.58;99012.13;5035594;28;20080;-85
2022/07/10 06:17:24;;;;;;;9.40;8.50;;;;;;;20.18;61.31;99010.47;5033883;28;20487;-86
2022/07/10 06:19:49;;;;;;;10.10;9.10;;;;;;;20.15;61.40;98996.28;5033924;28;20021;-85
2022/07/10 06:22:30;;;;;;;14.60;8.98;;;;;;;20.24;61.31;99001.53;5033567;28;20028;-85
2022/07/10 06:24:56;;;;;;;10.25;8.23;;;;;;;20.30;60.82;98992.19;5033778;28;20029;-86
2022/07/10 06:27:21;;;;;;;10.20;8.27;;;;;;;20.57;60.60;99005.81;5033890;28;20028;-85
2022/07/10 06:29:47;;;;;;;8.88;8.07;;;;;;;20.91;59.98;99010.09;5033743;28;20108;-85
2022/07/10 06:32:12;;;;;;;8.18;7.47;;;;;;;20.98;59.35;98980.81;5033220;28;20016;-84
2022/07/10 06:34:38;;;;;;;14.30;7.97;;;;;;;21.24;59.71;99016.34;5033992;28;20029;-85
2022/07/10 06:37:04;;;;;;;10.25;7.90;;;;;;;21.27;58.81;99014.69;5033611;28;20032;-85
2022/07/10 06:39:35;;;;;;;13.18;8.45;;;;;;;21.29;58.66;99001.66;5033514;28;20160;-85
2022/07/10 06:42:05;;;;;;;9.57;8.68;;;;;;;21.05;59.08;98975.06;5032841;28;20032;-85
2022/07/10 06:44:31;;;;;;;9.40;8.07;;;;;;;21.25;58.86;99000.88;5033121;28;20443;-85
2022/07/10 06:49:44;;;;;;;22.10;8.32;;;;;;;21.32;57.47;99014.25;5032034;28;20163;-85
2022/07/10 06:52:09;;;;;;;8.95;8.07;;;;;;;21.28;57.83;98997.19;5016385;28;20107;-85
2022/07/10 06:54:35;;;;;;;14.90;8.68;;;;;;;21.48;58.45;99010.03;5033324;28;20388;-85
2022/07/10 06:57:01;;;;;;;9.95;9.07;;;;;;;21.40;57.42;98983.69;5029749;28;20035;-86
2022/07/10 06:59:28;;;;;;;11.18;7.72;;;;;;;21.65;55.72;99000.50;5033194;28;20522;-86
2022/07/10 07:01:53;;;;;;;10.27;9.27;;;;;;;21.62;56.29;98960.72;5032948;28;20031;-85
2022/07/10 07:04:19;;;;;;;9.07;7.80;;;;;;;21.96;55.79;98977.03;5033211;28;20025;-86
2022/07/10 07:06:45;;;;;;;8.93;8.07;;;;;;;22.18;55.33;99005.25;5032671;28;20028;-85
2022/07/10 07:09:11;;;;;;;8.95;8.15;;;;;;;22.25;54.63;99020.19;5033169;28;20028;-86
2022/07/10 07:11:36;;;;;;;24.90;8.38;;;;;;;22.21;55.25;99008.06;5031576;28;20036;-86
2022/07/10 07:14:02;;;;;;;11.85;8.85;;;;;;;22.34;55.48;98987.56;5012904;28;20064;-86
2022/07/10 07:16:38;;;;;;;10.02;9.02;;;;;;;22.19;54.35;98999.09;5013747;28;20099;-86
2022/07/10 07:19:05;;;;;;;11.60;9.05;;;;;;;22.06;56.09;98976.09;5013492;28;20067;-84
2022/07/10 07:24:18;;;;;;;8.77;7.97;;;;;;;22.12;54.48;98976.44;5031185;28;20091;-84
2022/07/10 07:26:44;;;;;;;13.65;9.43;;;;;;;22.01;54.40;98988.75;5013408;28;20037;-84
2022/07/10 07:29:10;;;;;;;10.50;9.50;;;;;;;22.08;54.92;98992.72;5029571;28;20029;-85
2022/07/10 07:31:35;;;;;;;9.52;8.63;;;;;;;22.27;54.37;98997.78;5013391;28;20041;-84
2022/07/10 07:34:01;;;;;;;8.95;8.10;;;;;;;22.34;53.49;99004.63;5030667;28;20029;-85
2022/07/10 07:36:26;;;;;;;11.35;8.57;;;;;;;22.61;53.06;98998.97;5013551;28;20052;-84
2022/07/10 07:38:52;;;;;;;11.73;8.63;;;;;;;22.33;53.26;98971.69;5009839;28;20029;-85
2022/07/10 07:41:18;;;;;;;9.27;8.38;;;;;;;22.48;52.55;98980.81;5004705;28;20037;-84
2022/07/10 07:43:43;;;;;;;12.13;8.35;;;;;;;22.50;52.75;98984.91;5001987;28;20537;-84
2022/07/10 07:46:09;;;;;;;8.65;7.85;;;;;;;22.62;52.92;98989.19;5033805;28;20113;-85
2022/07/10 07:48:35;;;;;;;10.38;8.52;;;;;;;22.79;51.72;98995.88;5017090;28;20061;-84
2022/07/10 07:51:00;;;;;;;10.35;8.65;;;;;;;22.74;52.69;98976.41;5016993;28;20059;-84
2022/07/10 07:53:26;;;;;;;9.13;8.13;;;;;;;23.04;52.86;98991.81;5016636;28;20060;-84
2022/07/10 07:55:52;;;;;;;9.38;8.48;;;;;;;23.03;51.97;98993.06;5016630;28;20495;-83
2022/07/10 07:58:17;;;;;;;11.25;8.82;;;;;;;23.07;52.09;98998.72;5016279;28;20124;-84
2022/07/10 08:00:43;;;;;;;16.10;7.78;;;;;;;23.12;52.21;98999.03;5016727;28;20033;-84
2022/07/10 08:03:08;;;;;;;8.93;8.13;;;;;;;22.86;52.70;99000.66;5016672;28;20040;-84
2022/07/10 08:05:34;;;;;;;8.50;7.70;;;;;;;22.90;52.86;98984.31;5016338;28;20084;-83
2022/07/10 08:08:04;;;;;;;10.02;9.02;;;;;;;23.05;52.79;99006.88;5016641;28;20056;-84
2022/07/10 08:10:30;;;;;;;9.52;8.00;;;;;;;22.93;52.58;99011.94;5012106;28;20052;-84
2022/07/10 08:12:56;;;;;;;9.55;8.50;;;;;;;23.07;52.76;99007.25;5026063;28;20056;-83
2022/07/10 08:15:22;;;;;;;9.88;7.95;;;;;;;23.01;51.19;99001.25;5048898;28;20029;-84
2022/07/10 08:17:58;;;;;;;15.80;8.68;;;;;;;22.95;51.75;98991.56;5051026;28;20028;-84
2022/07/10 08:20:25;;;;;;;8.85;8.05;;;;;;;23.18;51.75;99009.94;5035729;28;20094;-85
2022/07/10 08:22:53;;;;;;;11.57;7.75;;;;;;;23.20;51.98;99008.25;5035047;28;20502;-85
2022/07/10 08:25:20;;;;;;;8.10;7.30;;;;;;;23.06;51.66;99002.81;5028140;28;20036;-84
2022/07/10 08:27:45;;;;;;;13.23;8.10;;;;;;;23.12;51.96;99004.72;5032497;28;20470;-84
2022/07/10 08:30:11;;;;;;;25.55;10.45;;;;;;;22.94;51.56;99005.00;5034988;28;20028;-84
2022/07/10 08:32:40;;;;;;;9.57;8.65;;;;;;;23.04;51.15;99008.91;5035752;28;20025;-84
2022/07/10 08:35:07;;;;;;;11.98;9.07;;;;;;;23.18;51.94;99012.81;5034526;28;20029;-84
2022/07/10 08:37:43;;;;;;;11.70;8.85;;;;;;;23.34;51.82;99012.97;5035263;28;20465;-85
2022/07/10 08:40:10;;;;;;;10.68;8.15;;;;;;;23.39;52.21;99005.94;5035043;28;20033;-84
2022/07/10 08:42:35;;;;;;;13.57;8.80;;;;;;;23.39;50.76;99014.50;5035340;28;20032;-84
2022/07/10 08:45:01;;;;;;;9.07;8.23;;;;;;;23.53;50.99;99019.97;5035569;28;20021;-84
2022/07/10 08:47:30;;;;;;;13.32;8.38;;;;;;;23.32;51.17;99020.31;5031935;28;20567;-84
2022/07/10 08:49:57;;;;;;;21.25;8.57;;;;;;;23.43;51.38;99018.09;5032532;28;20026;-84
2022/07/10 08:52:42;;;;;;;10.77;7.57;;;;;;;23.52;50.55;99026.91;5020683;28;20060;-85
2022/07/10 08:55:07;;;;;;;8.43;7.57;;;;;;;23.48;50.26;99019.66;5049218;28;20032;-84
2022/07/10 08:57:34;;;;;;;10.18;8.45;;;;;;;23.36;50.68;99015.38;5035413;28;20078;-83
2022/07/10 09:00:00;;;;;;;10.73;8.65;;;;;;;23.11;50.27;99014.53;5035329;28;20037;-83
2022/07/10 09:02:25;;;;;;;24.70;18.98;;;;;;;22.97;49.37;99017.59;5034807;28;20146;-86
2022/07/10 09:04:52;;;;;;;18.33;15.15;;;;;;;23.09;50.46;99019.03;5031832;28;20563;-84
2022/07/10 09:07:18;;;;;;;18.92;13.70;;;;;;;23.29;50.06;99010.63;5023020;28;20040;-84
2022/07/10 09:09:57;;;;;;;14.05;11.25;;;;;;;23.27;49.23;99004.50;5035296;28;20028;-83
2022/07/10 09:12:24;;;;;;;10.73;9.73;;;;;;;23.44;50.21;99016.84;5047416;28;20541;-84
2022/07/10 09:14:51;;;;;;;25.77;15.90;;;;;;;23.52;49.61;99014.69;5034863;28;20036;-84
2022/07/10 09:17:20;;;;;;;11.13;9.98;;;;;;;23.62;48.32;98998.63;5034330;28;20119;-84
2022/07/10 09:19:46;;;;;;;15.27;9.55;;;;;;;23.44;48.38;98973.25;5031491;28;20037;-85
2022/07/10 09:22:12;;;;;;;9.27;7.95;;;;;;;23.89;48.19;99015.66;5034493;28;20017;-83
2022/07/10 09:24:38;;;;;;;16.85;9.95;;;;;;;23.92;47.74;99011.09;5034840;28;20100;-84
2022/07/10 09:27:04;;;;;;;16.40;10.77;;;;;;;24.11;48.23;99007.47;5033917;28;20032;-84
2022/07/10 09:29:31;;;;;;;13.55;8.98;;;;;;;24.27;47.27;98993.69;5033720;28;20025;-84
2022/07/10 09:32:02;;;;;;;9.57;8.57;;;;;;;24.28;46.08;98993.25;5034881;28;20112;-83
2022/07/10 09:34:39;;;;;;;8.85;7.95;;;;;;;24.32;47.18;99013.16;5029940;28;20518;-84
2022/07/10 09:37:28;;;;;;;11.60;8.25;;;;;;;24.38;46.89;99020.78;5028034;28;20036;-86
2022/07/10 09:40:00;;;;;;;8.63;7.80;;;;;;;24.45;45.94;99014.09;5026304;28;20028;-84
2022/07/10 09:42:34;;;;;;;9.50;7.75;;;;;;;24.86;48.25;99011.19;5031359;28;20059;-85
2022/07/10 09:45:12;;;;;;;8.48;7.68;;;;;;;25.04;46.61;99014.44;5029465;28;20063;-86
2022/07/10 09:47:38;;;;;;;8.05;7.35;;;;;;;25.05;46.18;99009.53;5049941;28;20517;-86
2022/07/10 09:50:19;;;;;;;7.30;6.60;;;;;;;24.85;45.00;99009.56;5032208;28;20033;-85
2022/07/10 09:52:46;;;;;;;7.40;6.80;;;;;;;25.04;45.81;99008.72;5045362;28;20115;-84
2022/07/10 09:55:14;;;;;;;9.30;7.55;;;;;;;25.30;45.34;99003.16;5033087;28;20475;-85
2022/07/10 09:57:41;;;;;;;10.10;8.40;;;;;;;25.77;45.24;99012.63;5033081;28;20111;-86
2022/07/10 10:00:08;;;;;;;7.30;6.60;;;;;;;25.46;42.79;99010.94;5034057;28;20039;-84
2022/07/10 10:02:35;;;;;;;7.20;6.53;;;;;;;25.79;44.07;98998.63;5032622;28;20028;-85
2022/07/10 10:05:03;;;;;;;7.75;7.05;;;;;;;25.95;43.88;99003.53;5014606;28;20037;-85
2022/07/10 10:07:28;;;;;;;8.18;6.85;;;;;;;25.86;42.56;98987.00;5026560;28;20119;-85
2022/07/10 10:09:58;;;;;;;12.90;6.65;;;;;;;25.93;42.05;98986.78;5033923;28;20051;-84
2022/07/10 10:12:47;;;;;;;7.35;6.65;;;;;;;26.20;44.71;98964.78;5034207;28;20119;-85
2022/07/10 10:15:15;;;;;;;7.55;6.88;;;;;;;26.33;44.08;98985.66;5029066;28;20045;-85
2022/07/10 10:17:42;;;;;;;7.07;6.47;;;;;;;26.30;40.99;98989.44;5027973;28;20033;-85
2022/07/10 10:22:55;;;;;;;6.93;6.07;;;;;;;26.45;42.11;98986.97;5040551;28;20090;-85
2022/07/10 10:25:23;;;;;;;6.88;6.28;;;;;;;26.44;42.81;98979.63;5032485;28;20090;-86
2022/07/10 10:27:50;;;;;;;6.97;6.38;;;;;;;26.21;40.99;98964.31;5034641;28;20052;-86
2022/07/10 10:30:16;;;;;;;6.90;6.35;;;;;;;26.12;40.78;98981.34;5033562;28;20476;-85
2022/07/10 10:32:41;;;;;;;6.68;5.90;;;;;;;26.15;41.75;98965.31;5028249;28;20544;-86
2022/07/10 10:35:10;;;;;;;7.18;6.07;;;;;;;26.19;40.45;98945.97;5027606;28;20021;-86
2022/07/10 10:37:43;;;;;;;6.82;6.10;;;;;;;26.10;41.73;98965.88;5034531;28;20040;-85
2022/07/10 10:40:32;;;;;;;;;;;;;;;25.95;42.75;98988.41;5034719;28;20041;-86
2022/07/10 10:42:59;;;;;;;10.27;7.28;;;;;;;26.20;42.96;98982.78;5050383;28;19970;-87
2022/07/10 10:45:35;;;;;;;6.95;6.28;;;;;;;26.17;40.53;98971.41;5028710;28;20037;-86
2022/07/10 10:48:10;;;;;;;14.73;7.22;;;;;;;26.07;42.78;98973.31;5026630;28;20025;-85
2022/07/10 10:50:40;;;;;;;8.52;6.70;;;;;;;26.17;43.62;98971.41;5042490;28;20032;-86
2022/07/10 10:53:13;;;;;;;7.88;6.20;;;;;;;26.10;41.55;98954.41;5031013;28;20132;-86
2022/07/10 10:55:38;;;;;;;6.60;6.00;;;;;;;26.30;42.72;98940.72;5027382;28;20128;-87
2022/07/10 10:58:18;;;;;;;7.07;6.35;;;;;;;26.69;42.40;98957.97;5024602;28;20143;-86
2022/07/10 11:00:44;;;;;;;7.28;6.57;;;;;;;26.56;41.74;98960.81;5044553;28;20086;-86
2022/07/10 11:03:15;;;;;;;8.82;7.10;;;;;;;26.24;41.23;98924.56;5030681;28;20056;-87
2022/07/10 11:05:43;;;;;;;15.48;7.00;;;;;;;26.62;42.09;98949.56;5035173;28;20113;-86
2022/07/10 11:08:09;;;;;;;11.80;6.90;;;;;;;26.58;40.18;98948.91;5031747;28;20032;-85
2022/07/10 11:10:44;;;;;;;10.15;6.70;;;;;;;26.76;40.86;98940.50;5031786;28;20029;-86
2022/07/10 11:13:14;;;;;;;9.40;7.05;;;;;;;26.77;40.68;98947.06;5031718;28;20549;-86
2022/07/10 11:15:44;;;;;;;9.30;6.43;;;;;;;26.77;39.82;98933.50;5033194;28;20033;-85
2022/07/10 11:18:16;;;;;;;16.25;7.50;;;;;;;26.95;40.78;98926.41;5035222;28;20025;-86
2022/07/10 11:20:50;;;;;;;7.13;6.43;;;;;;;27.05;39.00;98931.00;5055278;28;20041;-86
2022/07/10 11:23:53;;;;;;;19.67;7.22;;;;;;;26.94;39.03;98929.72;5055544;28;20033;-87
2022/07/10 11:26:43;;;;;;;8.13;6.72;;;;;;;26.90;38.95;98919.19;5048158;28;20035;-86
2022/07/10 11:29:08;;;;;;;;;;;;;;;26.59;40.49;98931.22;5027843;28;20037;-85
2022/07/10 11:31:52;;;;;;;8.77;6.20;;;;;;;26.41;39.61;98923.19;5060797;28;19916;-86
2022/07/10 11:34:17;;;;;;;8.93;7.32;;;;;;;26.54;40.36;98922.38;5048555;28;20029;-86
2022/07/10 11:36:43;;;;;;;8.27;5.53;;;;;;;26.69;40.05;98931.34;5037367;28;20032;-86
2022/07/10 11:39:09;;;;;;;12.93;6.78;;;;;;;26.76;38.80;98914.69;5048854;28;20029;-86
2022/07/10 11:41:45;;;;;;;7.00;6.30;;;;;;;26.94;39.32;98916.19;5044407;28;20033;-86
2022/07/10 11:44:16;;;;;;;7.25;6.57;;;;;;;26.81;40.22;98915.38;5038145;28;20036;-87
2022/07/10 11:46:44;;;;;;;8.60;5.90;;;;;;;26.70;39.42;98919.41;5034794;28;20090;-87